Time;durP1;ratioP1;P1;durP2;ratioP2;P2;SDS_P1;SDS_P2;PMS_P1;PMS_P2;Temp;Humidity;BMP_temperature;BMP_pressure;BME280_temperature;BME280_humidity;BME280_pressure;Samples;Min_cycle;Max_cycle;Signal;HPM_P1;HPM_P2
2021/11/04 00:01:54;;;;;;;103.45;52.80;;;;;;;9.99;88.78;101953.36;1756280;79;21691;-73
2021/11/04 00:04:26;;;;;;;105.15;55.10;;;;;;;10.03;88.97;101949.06;1760129;80;21700;-75
2021/11/04 00:06:59;;;;;;;103.07;51.25;;;;;;;10.10;89.01;101942.91;1752024;80;21398;-73
2021/11/04 00:09:32;;;;;;;114.12;53.25;;;;;;;10.11;88.82;101941.87;1720585;82;21189;-73
2021/11/04 00:12:05;;;;;;;102.60;53.23;;;;;;;10.12;88.79;101938.01;1717340;82;21356;-72
2021/11/04 00:14:38;;;;;;;96.55;50.35;;;;;;;10.11;88.64;101926.60;1723383;82;21346;-73
2021/11/04 00:17:11;;;;;;;102.05;51.55;;;;;;;10.14;88.79;101926.66;1719622;82;21422;-77
2021/11/04 00:19:45;;;;;;;95.15;50.85;;;;;;;10.17;88.80;101927.08;1681833;82;21248;-75
2021/11/04 00:22:17;;;;;;;99.52;51.35;;;;;;;10.13;88.46;101925.83;1702248;82;21191;-76
2021/11/04 00:24:49;;;;;;;91.95;52.10;;;;;;;10.02;88.43;101924.28;1713806;82;21861;-77
2021/11/04 00:27:22;;;;;;;85.55;48.90;;;;;;;10.01;88.88;101930.38;1767534;80;21763;-73
2021/11/04 00:29:55;;;;;;;87.02;47.45;;;;;;;10.03;88.94;101937.97;1750815;81;21387;-74
2021/11/04 00:32:27;;;;;;;91.02;50.67;;;;;;;10.03;88.92;101944.04;1694012;83;21455;-76
2021/11/04 00:35:00;;;;;;;89.62;51.53;;;;;;;10.02;89.12;101945.95;1750743;81;21259;-73
2021/11/04 00:37:33;;;;;;;89.50;47.75;;;;;;;10.10;89.50;101955.41;1746899;79;21776;-72
2021/11/04 00:40:06;;;;;;;87.65;46.53;;;;;;;10.14;89.29;101956.66;1733478;79;21343;-71
2021/11/04 00:42:40;;;;;;;88.05;49.42;;;;;;;10.14;89.23;101935.84;1754952;80;21720;-72
2021/11/04 00:45:12;;;;;;;86.87;47.03;;;;;;;10.20;89.57;101929.91;1730054;81;21340;-73
2021/11/04 00:47:45;;;;;;;94.20;50.23;;;;;;;10.25;89.44;101937.88;1740027;80;21903;-75
2021/11/04 00:50:18;;;;;;;86.00;49.35;;;;;;;10.19;89.22;101944.88;1717280;81;21686;-72
2021/11/04 00:52:50;;;;;;;86.82;47.03;;;;;;;10.15;89.54;101935.33;1729952;81;21360;-71
2021/11/04 00:55:24;;;;;;;88.27;49.75;;;;;;;10.20;89.85;101936.33;1730520;80;21202;-72
2021/11/04 00:57:56;;;;;;;80.55;48.35;;;;;;;10.27;89.80;101938.50;1714554;80;21351;-72
2021/11/04 01:00:29;;;;;;;95.25;50.17;;;;;;;10.37;90.11;101935.20;1744171;79;21171;-73
2021/11/04 01:03:01;;;;;;;90.28;51.45;;;;;;;10.44;89.89;101938.23;1761379;79;21849;-70
2021/11/04 01:05:34;;;;;;;86.42;48.95;;;;;;;10.46;89.67;101927.73;1723516;80;21950;-72
2021/11/04 01:08:06;;;;;;;85.50;47.13;;;;;;;10.54;89.64;101930.75;1753605;80;21149;-75
2021/11/04 01:10:39;;;;;;;87.47;49.73;;;;;;;10.60;89.53;101941.81;1745099;80;21365;-73
2021/11/04 01:13:12;;;;;;;84.05;48.75;;;;;;;10.67;89.44;101934.77;1755477;79;21355;-73
2021/11/04 01:15:44;;;;;;;85.32;47.20;;;;;;;10.68;89.25;101935.94;1752412;79;21361;-74
2021/11/04 01:18:17;;;;;;;78.92;45.17;;;;;;;10.70;89.09;101931.55;1716940;81;21432;-81
2021/11/04 01:20:53;;;;;;;80.57;44.70;;;;;;;10.72;89.00;101949.69;1730093;80;21821;-76
2021/11/04 01:23:27;;;;;;;85.15;46.73;;;;;;;10.78;89.05;101939.56;1727633;80;21877;-75
2021/11/04 01:26:01;;;;;;;82.62;46.42;;;;;;;10.80;88.74;101936.01;1743666;80;21234;-75
2021/11/04 01:28:33;;;;;;;72.35;43.35;;;;;;;10.80;88.63;101934.09;1754340;79;21181;-75
2021/11/04 01:31:09;;;;;;;83.25;45.28;;;;;;;10.79;88.43;101928.23;1742804;79;21924;-77
2021/11/04 01:33:46;;;;;;;82.17;45.30;;;;;;;10.77;88.36;101923.42;1720412;81;21205;-74
2021/11/04 01:36:18;;;;;;;84.55;46.58;;;;;;;10.77;88.35;101922.59;1687076;82;21195;-76
2021/11/04 01:38:51;;;;;;;83.25;48.17;;;;;;;10.75;88.35;101909.45;1725785;81;21193;-76
2021/11/04 01:41:23;;;;;;;71.20;43.83;;;;;;;10.75;88.53;101910.32;1706860;82;21250;-76
2021/11/04 01:43:57;;;;;;;73.37;43.17;;;;;;;10.72;88.36;101922.44;1728004;80;21225;-76
2021/11/04 01:46:30;;;;;;;79.15;44.30;;;;;;;10.70;88.59;101921.27;1740101;80;21298;-74
2021/11/04 01:49:05;;;;;;;77.97;45.15;;;;;;;10.69;88.61;101926.52;1721196;81;21412;-74
2021/11/04 01:51:39;;;;;;;86.05;48.90;;;;;;;10.67;88.43;101924.53;1728848;81;21691;-77
2021/11/04 01:54:17;;;;;;;83.40;45.67;;;;;;;10.58;88.41;101918.95;1721219;80;21254;-74
2021/11/04 01:56:52;;;;;;;79.05;44.93;;;;;;;10.56;88.71;101926.67;1761525;79;21429;-77
2021/11/04 01:59:27;;;;;;;83.33;46.35;;;;;;;10.59;88.93;101932.31;1749846;81;21839;-74
2021/11/04 02:02:27;;;;;;;86.70;47.98;;;;;;;10.65;89.07;101935.55;1739521;80;22077;-76
2021/11/04 02:05:04;;;;;;;86.55;49.88;;;;;;;10.68;89.02;101940.11;1754240;80;21351;-75
2021/11/04 02:07:58;;;;;;;87.67;46.92;;;;;;;10.70;88.83;101949.05;1741744;80;22333;-76
2021/11/04 02:10:43;;;;;;;76.87;45.55;;;;;;;10.69;88.57;101954.83;1748149;80;21370;-75
2021/11/04 02:13:40;;;;;;;81.30;45.85;;;;;;;10.65;88.30;101964.16;1738704;80;21302;-75
2021/11/04 02:16:13;;;;;;;82.97;46.85;;;;;;;10.60;88.28;101969.58;1742631;80;21357;-75
2021/11/04 02:18:47;;;;;;;95.30;48.20;;;;;;;10.58;88.39;101964.77;1722560;80;21220;-77
2021/11/04 02:21:36;;;;;;;89.20;46.88;;;;;;;10.60;88.57;101956.22;1748842;79;21283;-74
2021/11/04 02:24:46;;;;;;;76.02;45.25;;;;;;;10.64;88.74;101958.30;1679677;82;21300;-75
2021/11/04 02:27:18;;;;;;;78.42;45.23;;;;;;;10.68;88.68;101962.33;1786495;79;21371;-72
2021/11/04 02:29:51;;;;;;;88.82;49.15;;;;;;;10.73;88.88;101960.24;1778070;78;21336;-77
2021/11/04 02:32:25;;;;;;;88.30;49.75;;;;;;;10.75;88.93;101962.23;1721244;81;21954;-74
2021/11/04 02:34:58;;;;;;;95.50;48.30;;;;;;;10.73;88.98;101955.55;1761769;79;21947;-75
2021/11/04 02:37:31;;;;;;;81.28;43.98;;;;;;;10.73;89.13;101968.58;1783981;78;21194;-74
2021/11/04 02:40:04;;;;;;;95.13;46.13;;;;;;;10.75;89.25;101967.27;1760422;78;21965;-74
2021/11/04 02:42:38;;;;;;;98.30;50.40;;;;;;;10.74;89.36;101980.85;1739423;80;21336;-75
2021/11/04 02:45:11;;;;;;;98.78;49.85;;;;;;;10.74;89.93;101982.77;1753115;79;21750;-74
2021/11/04 02:47:46;;;;;;;88.67;48.20;;;;;;;10.75;90.35;101985.33;1751316;80;21340;-78
2021/11/04 02:50:19;;;;;;;83.50;43.05;;;;;;;10.79;90.56;101987.96;1757780;81;21685;-79
2021/11/04 02:52:52;;;;;;;89.35;46.92;;;;;;;10.85;90.68;101987.05;1736295;80;21288;-73
2021/11/04 02:55:38;;;;;;;100.40;47.80;;;;;;;10.88;90.71;101993.52;1753975;79;21838;-77
2021/11/04 02:58:12;;;;;;;109.30;50.63;;;;;;;10.92;91.00;101999.45;1745250;80;21907;-77
2021/11/04 03:00:52;;;;;;;100.53;49.33;;;;;;;10.93;91.13;101992.28;1738469;79;21375;-73
2021/11/04 03:03:25;;;;;;;99.07;47.10;;;;;;;10.98;91.31;102000.78;1730173;80;21226;-74
2021/11/04 03:06:00;;;;;;;86.35;45.40;;;;;;;11.02;91.39;101997.00;1748828;80;21389;-71
2021/11/04 03:08:35;;;;;;;92.30;47.27;;;;;;;11.02;91.50;101991.44;1786859;78;21309;-75
2021/11/04 03:11:08;;;;;;;79.82;44.35;;;;;;;11.03;91.59;101996.78;1747766;80;21829;-79
2021/11/04 03:13:40;;;;;;;85.38;45.85;;;;;;;11.06;91.92;102002.41;1751257;80;21333;-74
2021/11/04 03:16:14;;;;;;;82.95;44.00;;;;;;;11.10;92.26;102003.10;1746161;80;21313;-78
2021/11/04 03:18:47;;;;;;;88.40;44.23;;;;;;;11.18;92.52;102005.56;1726216;81;21719;-75
2021/11/04 03:21:21;;;;;;;86.65;44.95;;;;;;;11.21;92.54;102009.81;1763948;78;21328;-73
2021/11/04 03:23:53;;;;;;;96.08;46.85;;;;;;;11.22;92.61;102022.09;1776892;79;21831;-76
2021/11/04 03:26:28;;;;;;;90.43;45.40;;;;;;;11.24;92.78;102017.67;1762262;77;21221;-76
2021/11/04 03:29:03;;;;;;;80.50;45.17;;;;;;;11.26;92.93;102010.80;1794715;78;21220;-77
2021/11/04 03:31:38;;;;;;;75.20;40.00;;;;;;;11.29;93.03;102008.09;1758567;80;21276;-76
2021/11/04 03:34:11;;;;;;;62.83;37.17;;;;;;;11.34;93.39;101999.38;1727697;80;21736;-79
2021/11/04 03:36:49;;;;;;;78.57;41.55;;;;;;;11.40;93.92;101999.84;1752508;79;21249;-77
2021/11/04 03:39:23;;;;;;;59.75;35.52;;;;;;;11.52;95.05;101998.50;1734205;80;21195;-72
2021/11/04 03:41:56;;;;;;;69.15;37.63;;;;;;;11.63;95.88;101997.73;1724389;82;21219;-73
2021/11/04 03:44:29;;;;;;;70.62;40.52;;;;;;;11.88;97.96;101995.66;1743887;80;21258;-80
2021/11/04 03:47:02;;;;;;;67.90;36.40;;;;;;;12.11;99.38;101997.13;1741572;81;21360;-79
2021/11/04 03:49:35;;;;;;;65.10;38.73;;;;;;;12.27;99.94;101997.27;1714138;79;21192;-71
2021/11/04 03:52:08;;;;;;;65.08;40.20;;;;;;;12.36;100.00;102001.38;1700397;82;21236;-81
2021/11/04 03:54:41;;;;;;;;;;;;;;;12.40;99.84;102008.75;1745495;80;21376;-72
2021/11/04 03:57:13;;;;;;;65.37;38.10;;;;;;;12.42;99.60;102019.92;1735272;80;21379;-74
2021/11/04 03:59:46;;;;;;;73.45;40.35;;;;;;;12.44;99.32;102022.47;1736949;80;21365;-74
2021/11/04 04:02:23;;;;;;;79.82;43.28;;;;;;;12.46;99.25;102029.51;1761644;78;21190;-73
2021/11/04 04:04:57;;;;;;;74.45;42.43;;;;;;;12.47;98.92;102028.98;1759732;79;21225;-75
2021/11/04 04:07:33;;;;;;;65.47;38.40;;;;;;;12.50;99.00;102028.48;1780068;79;21860;-75
2021/11/04 04:10:06;;;;;;;75.50;41.50;;;;;;;12.49;98.61;102034.62;1779257;79;21840;-73
2021/11/04 04:12:39;;;;;;;74.92;39.78;;;;;;;12.50;98.46;102037.70;1778958;78;21229;-74
2021/11/04 04:15:11;;;;;;;77.50;41.90;;;;;;;12.55;98.31;102032.80;1770151;79;21409;-74
2021/11/04 04:17:45;;;;;;;73.20;41.68;;;;;;;12.56;97.71;102026.13;1735743;80;21147;-73
2021/11/04 04:20:17;;;;;;;82.08;43.45;;;;;;;12.53;97.72;102021.88;1742800;80;21340;-74
2021/11/04 04:22:50;;;;;;;81.97;42.70;;;;;;;12.54;97.86;102015.22;1784886;79;21700;-72
2021/11/04 04:25:23;;;;;;;;;;;;;;;12.57;97.57;102023.11;1762149;79;21301;-74
2021/11/04 04:27:58;;;;;;;71.65;42.45;;;;;;;12.55;97.03;102028.61;1750458;79;20617;-76
2021/11/04 04:30:38;;;;;;;58.80;33.92;;;;;;;12.51;97.73;102026.86;1739940;79;21345;-76
2021/11/04 04:33:12;;;;;;;58.55;34.50;;;;;;;12.47;97.83;102019.22;1749842;79;21929;-73
2021/11/04 04:35:44;;;;;;;64.35;35.20;;;;;;;12.48;98.30;102019.52;1727871;80;21744;-76
2021/11/04 04:38:17;;;;;;;66.57;38.17;;;;;;;12.49;98.18;102022.61;1734225;80;21375;-74
2021/11/04 04:40:50;;;;;;;66.70;37.40;;;;;;;12.48;98.38;102028.71;1746644;79;21316;-78
2021/11/04 04:43:22;;;;;;;64.03;37.17;;;;;;;12.49;98.63;102024.86;1780391;77;21190;-77
2021/11/04 04:45:55;;;;;;;55.95;34.30;;;;;;;12.52;98.76;102021.58;1783409;78;21174;-75
2021/11/04 04:48:27;;;;;;;52.08;32.78;;;;;;;12.58;99.37;102030.37;1777928;79;21224;-75
2021/11/04 04:51:00;;;;;;;53.92;31.42;;;;;;;12.70;100.00;102034.02;1774309;78;21420;-82
2021/11/04 04:53:33;;;;;;;46.65;29.37;;;;;;;12.79;100.00;102032.58;1776338;78;21269;-76
2021/11/04 04:56:05;;;;;;;66.05;37.63;;;;;;;12.85;100.00;102032.98;1785167;78;21190;-74
2021/11/04 04:58:41;;;;;;;51.13;31.73;;;;;;;12.92;100.00;102033.73;1773525;77;21187;-74
2021/11/04 05:01:15;;;;;;;49.55;30.43;;;;;;;12.99;100.00;102035.88;1783777;77;21233;-80
2021/11/04 05:03:52;;;;;;;56.77;33.73;;;;;;;13.04;100.00;102036.00;1788844;77;21304;-76
2021/11/04 05:06:26;;;;;;;56.80;33.35;;;;;;;13.12;100.00;102041.72;1776086;77;21221;-86
2021/11/04 05:08:59;;;;;;;50.00;29.90;;;;;;;13.20;100.00;102039.98;1762725;79;21233;-87
2021/11/04 05:11:31;;;;;;;52.83;29.87;;;;;;;13.24;100.00;102039.77;1762252;78;21186;-76
2021/11/04 05:14:07;;;;;;;53.02;32.30;;;;;;;13.29;100.00;102046.33;1786741;78;21174;-87
2021/11/04 05:16:41;;;;;;;48.70;29.32;;;;;;;13.33;100.00;102047.52;1769402;79;21328;-78
2021/11/04 05:19:15;;;;;;;47.88;27.05;;;;;;;13.37;100.00;102047.34;1765780;79;21274;-92
2021/11/04 05:21:48;;;;;;;;;;;;;;;13.46;100.00;102051.42;1782926;79;21912;-81
2021/11/04 05:24:21;;;;;;;56.85;30.20;;;;;;;13.51;100.00;102052.11;1790524;79;20673;-73
2021/11/04 05:26:53;;;;;;;57.08;34.18;;;;;;;13.54;100.00;102062.23;1790948;78;21818;-75
2021/11/04 05:29:27;;;;;;;47.33;30.40;;;;;;;13.59;100.00;102065.13;1740133;82;21272;-77
2021/11/04 05:32:01;;;;;;;42.23;27.25;;;;;;;13.67;100.00;102070.86;1784824;77;21256;-75
2021/11/04 05:34:40;;;;;;;47.62;29.40;;;;;;;13.76;100.00;102079.98;1780323;79;21178;-80
2021/11/04 05:37:12;;;;;;;45.67;28.87;;;;;;;13.84;100.00;102089.39;1761040;78;21766;-75
2021/11/04 05:39:45;;;;;;;51.85;31.42;;;;;;;13.98;100.00;102088.00;1763433;78;21809;-79
2021/11/04 05:42:17;;;;;;;47.20;27.98;;;;;;;14.29;100.00;102090.89;1762830;78;21356;-81
2021/11/04 05:44:51;;;;;;;48.50;29.27;;;;;;;14.29;100.00;102090.89;1760928;80;21347;-78
2021/11/04 05:47:24;;;;;;;47.17;29.00;;;;;;;14.42;100.00;102099.78;1717666;81;21254;-76
2021/11/04 05:49:56;;;;;;;47.67;26.47;;;;;;;14.53;100.00;102099.41;1771585;78;21367;-74
2021/11/04 05:52:29;;;;;;;38.20;25.75;;;;;;;14.53;100.00;102099.41;1756036;80;21583;-82
2021/11/04 05:55:02;;;;;;;41.40;25.80;;;;;;;14.60;100.00;102101.52;1757811;79;21449;-82
2021/11/04 05:57:36;;;;;;;45.78;27.85;;;;;;;14.63;100.00;102087.89;1780001;79;21474;-76
2021/11/04 06:00:09;;;;;;;40.80;26.57;;;;;;;14.70;100.00;102089.10;1783382;79;21258;-85
2021/11/04 06:02:46;;;;;;;43.75;26.48;;;;;;;14.77;100.00;102085.05;1735946;80;21388;-71
2021/11/04 06:05:21;;;;;;;43.45;26.87;;;;;;;14.83;98.90;102064.98;1777698;79;21398;-73
2021/11/04 06:07:55;;;;;;;44.85;27.25;;;;;;;14.83;98.90;102064.98;1738675;80;21278;-73
2021/11/04 06:10:27;;;;;;;41.90;24.82;;;;;;;14.85;98.43;102062.23;1780818;78;21893;-76
2021/11/04 06:13:01;;;;;;;41.18;24.05;;;;;;;14.94;98.00;102072.45;1760533;79;21317;-78
2021/11/04 06:15:35;;;;;;;42.50;26.95;;;;;;;14.95;97.50;102069.94;1787505;79;22589;-79
2021/11/04 06:18:09;;;;;;;35.65;23.35;;;;;;;14.97;96.45;102062.16;1773479;79;21715;-78
2021/11/04 06:20:42;;;;;;;39.92;23.98;;;;;;;14.99;96.44;102068.34;1766485;79;21296;-78
2021/11/04 06:23:15;;;;;;;38.38;24.55;;;;;;;15.04;96.54;102083.23;1723789;81;21365;-76
2021/11/04 06:25:49;;;;;;;39.15;24.77;;;;;;;15.08;96.07;102087.23;1765905;79;21716;-80
2021/11/04 06:28:21;;;;;;;34.80;22.77;;;;;;;15.12;95.65;102088.42;1759898;79;21716;-75
2021/11/04 06:30:53;;;;;;;41.23;24.98;;;;;;;15.19;95.28;102078.44;1752796;80;21265;-71
2021/11/04 06:33:26;;;;;;;39.00;23.18;;;;;;;15.23;94.08;102100.61;1772005;79;21874;-70
2021/11/04 06:35:58;;;;;;;35.20;22.30;;;;;;;15.17;93.57;102095.50;1774988;78;21418;-72
2021/11/04 06:38:32;;;;;;;36.95;23.52;;;;;;;15.20;93.69;102096.38;1791575;78;21328;-79
2021/11/04 06:41:04;;;;;;;;;;;;;;;15.22;93.23;102093.33;1791017;79;21320;-83
2021/11/04 06:43:37;;;;;;;38.20;21.73;;;;;;;15.22;93.59;102094.16;1781891;79;20249;-74
2021/11/04 06:46:14;;;;;;;39.45;21.62;;;;;;;15.32;94.62;102088.75;1740077;80;21544;-75
2021/11/04 06:48:49;;;;;;;36.08;23.05;;;;;;;15.44;95.28;102092.83;1785136;78;21561;-70
2021/11/04 06:51:23;;;;;;;32.45;20.02;;;;;;;15.48;93.91;102092.62;1695015;82;21372;-70
2021/11/04 06:53:58;;;;;;;38.02;21.33;;;;;;;15.50;94.00;102102.45;1778453;79;21323;-70
2021/11/04 06:56:35;;;;;;;35.30;20.57;;;;;;;15.61;94.48;102106.23;1778728;79;21174;-71
2021/11/04 06:59:09;;;;;;;33.65;19.87;;;;;;;15.69;94.08;102102.44;1776776;79;21324;-73
2021/11/04 07:01:41;;;;;;;33.88;19.17;;;;;;;15.78;94.00;102100.89;1776781;79;21840;-81
2021/11/04 07:04:18;;;;;;;33.92;21.80;;;;;;;15.89;93.60;102101.30;1723444;81;21214;-72
2021/11/04 07:06:55;;;;;;;31.52;20.68;;;;;;;15.98;93.52;102103.95;1744217;80;21257;-82
2021/11/04 07:09:24;;;;;;;33.33;20.65;;;;;;;16.12;93.45;102115.61;1758787;80;21875;-81
2021/11/04 07:11:59;;;;;;;33.90;21.10;;;;;;;16.20;92.04;102120.16;1750682;80;21182;-80
2021/11/04 07:14:33;;;;;;;36.42;20.48;;;;;;;16.20;90.57;102121.03;1765969;78;21737;-79
2021/11/04 07:17:09;;;;;;;35.50;22.15;;;;;;;16.23;91.05;102121.06;1757951;80;21269;-72
2021/11/04 07:19:42;;;;;;;39.05;21.10;;;;;;;16.28;89.69;102119.72;1756427;79;21953;-74
2021/11/04 07:22:22;;;;;;;30.02;19.30;;;;;;;16.18;88.10;102116.80;1711082;82;21197;-73
2021/11/04 07:25:06;;;;;;;35.05;20.77;;;;;;;16.09;86.59;102121.19;1756536;78;21411;-72
2021/11/04 07:28:04;;;;;;;36.13;21.17;;;;;;;15.93;87.99;102115.63;1729820;80;21882;-81
2021/11/04 07:30:57;;;;;;;31.20;20.70;;;;;;;15.95;87.51;102115.66;1765252;79;21537;-82
2021/11/04 07:33:32;;;;;;;41.08;20.05;;;;;;;15.90;88.18;102118.42;1757231;80;21330;-77
2021/11/04 07:36:06;;;;;;;23.73;16.40;;;;;;;15.97;88.69;102114.87;1763706;80;21274;-83
2021/11/04 07:38:39;;;;;;;34.27;20.68;;;;;;;16.02;88.62;102114.08;1764043;79;21864;-82
2021/11/04 07:41:11;;;;;;;28.80;19.12;;;;;;;16.03;88.38;102103.44;1764307;79;21233;-79
2021/11/04 07:43:43;;;;;;;34.05;18.45;;;;;;;15.98;86.65;102103.38;1748188;80;21376;-77
2021/11/04 07:46:39;;;;;;;39.05;20.27;;;;;;;15.91;87.22;102097.70;1765885;79;21383;-82
2021/11/04 07:49:07;;;;;;;30.27;18.25;;;;;;;15.88;86.49;102094.58;1724493;80;21277;-71
2021/11/04 07:51:41;;;;;;;25.50;16.05;;;;;;;15.83;87.04;102091.70;1720922;80;21258;-71
2021/11/04 07:54:14;;;;;;;24.57;16.60;;;;;;;15.73;86.70;102095.22;1725636;80;21401;-81
2021/11/04 07:56:49;;;;;;;29.37;19.95;;;;;;;15.74;87.42;102097.45;1699367;81;21205;-80
2021/11/04 07:59:22;;;;;;;26.55;17.55;;;;;;;15.70;86.67;102098.53;1689753;82;21225;-80
2021/11/04 08:01:56;;;;;;;25.67;16.83;;;;;;;15.57;85.97;102099.48;1728567;81;21329;-72
2021/11/04 08:04:30;;;;;;;;;;;;;;;15.41;86.18;102105.39;1718917;81;21762;-79
2021/11/04 08:07:02;;;;;;;;;;;;;;;15.29;87.16;102105.19;1705070;82;20217;-70
2021/11/04 08:09:34;;;;;;;37.48;18.70;;;;;;;15.38;89.43;102108.72;1685351;83;20584;-81
2021/11/04 08:12:09;;;;;;;31.52;17.92;;;;;;;15.52;88.79;102093.23;1730786;81;21270;-73
2021/11/04 08:14:42;;;;;;;30.92;18.48;;;;;;;15.59;87.54;102088.86;1724319;81;21238;-72
2021/11/04 08:17:14;;;;;;;30.57;17.95;;;;;;;15.58;87.71;102095.58;1721415;81;21709;-73
2021/11/04 08:19:46;;;;;;;27.58;16.97;;;;;;;15.59;86.96;102088.29;1728924;81;21336;-72
2021/11/04 08:22:20;;;;;;;36.35;18.35;;;;;;;15.60;87.20;102091.41;1721394;81;21328;-75
2021/11/04 08:24:53;;;;;;;31.95;17.42;;;;;;;15.74;88.25;102090.45;1728941;79;21348;-78
2021/11/04 08:27:25;;;;;;;32.40;15.48;;;;;;;15.92;87.99;102086.78;1723475;80;21610;-71
2021/11/04 08:29:58;;;;;;;22.70;15.20;;;;;;;16.02;86.64;102091.66;1721250;81;21209;-81
2021/11/04 08:32:31;;;;;;;22.93;13.60;;;;;;;16.14;86.76;102085.64;1770198;77;21376;-77
2021/11/04 08:35:04;;;;;;;21.37;15.63;;;;;;;16.31;86.39;102082.19;1785478;77;21241;-77
2021/11/04 08:37:36;;;;;;;34.27;17.57;;;;;;;16.40;85.00;102075.02;1754363;80;21300;-78
2021/11/04 08:40:10;;;;;;;26.82;15.15;;;;;;;16.47;83.99;102079.02;1753880;78;22188;-78
2021/11/04 08:42:47;;;;;;;24.50;15.18;;;;;;;16.41;83.11;102077.28;1749887;79;21279;-76
2021/11/04 08:45:23;;;;;;;32.25;17.42;;;;;;;16.26;81.91;102069.52;1773960;78;21253;-76
2021/11/04 08:48:09;;;;;;;25.43;15.53;;;;;;;16.02;82.10;102067.84;1767426;78;21211;-80
2021/11/04 08:50:42;;;;;;;22.45;14.38;;;;;;;15.78;82.81;102067.28;1738526;78;21285;-78
2021/11/04 08:53:15;;;;;;;25.88;15.03;;;;;;;15.58;84.12;102067.00;1776881;78;21338;-78
2021/11/04 08:55:48;;;;;;;30.67;16.70;;;;;;;15.62;85.67;102070.13;1764409;79;21240;-77
2021/11/04 08:58:20;;;;;;;22.90;15.45;;;;;;;15.78;85.73;102074.29;1768026;79;22082;-77
2021/11/04 09:00:53;;;;;;;24.12;15.20;;;;;;;15.88;85.41;102067.39;1777251;80;21149;-77
2021/11/04 09:03:26;;;;;;;27.73;17.00;;;;;;;15.92;85.38;102057.91;1712408;82;21351;-78
2021/11/04 09:05:59;;;;;;;40.70;16.32;;;;;;;15.93;84.01;102052.58;1771486;79;21473;-77
2021/11/04 09:08:34;;;;;;;28.65;15.20;;;;;;;15.82;84.83;102054.42;1764323;79;21480;-76
2021/11/04 09:11:08;;;;;;;24.67;15.70;;;;;;;15.88;85.93;102055.35;1752118;78;21331;-79
2021/11/04 09:13:40;;;;;;;33.63;19.85;;;;;;;15.95;85.02;102060.20;1765492;79;21230;-77
2021/11/04 09:16:13;;;;;;;37.10;21.30;;;;;;;15.83;84.75;102056.12;1759973;79;21387;-79
2021/11/04 09:18:45;;;;;;;33.18;20.25;;;;;;;15.72;85.11;102052.92;1750291;80;21351;-78
2021/11/04 09:21:18;;;;;;;31.57;20.02;;;;;;;15.65;85.74;102045.81;1799721;77;21366;-78
2021/11/04 09:23:50;;;;;;;23.20;14.75;;;;;;;15.77;86.67;102050.73;1785997;76;21324;-79
2021/11/04 09:26:23;;;;;;;28.33;16.97;;;;;;;15.89;86.13;102046.66;1807419;77;21316;-77
2021/11/04 09:29:04;;;;;;;29.12;18.57;;;;;;;16.01;86.27;102043.16;1779326;77;21249;-78
2021/11/04 09:31:44;;;;;;;26.52;16.32;;;;;;;16.16;85.79;102034.94;1748712;79;21396;-76
2021/11/04 09:34:18;;;;;;;26.48;15.30;;;;;;;16.20;84.19;102024.86;1762000;80;21195;-76
2021/11/04 09:36:51;;;;;;;24.72;15.15;;;;;;;16.08;84.29;102020.83;1769093;79;21334;-76
2021/11/04 09:39:23;;;;;;;24.40;14.20;;;;;;;16.11;84.88;102029.27;1779984;79;21839;-77
2021/11/04 09:42:01;;;;;;;28.23;17.12;;;;;;;16.16;84.79;102030.16;1767757;79;21860;-80
2021/11/04 09:44:33;;;;;;;24.63;15.00;;;;;;;16.19;84.70;102037.19;1767247;78;21956;-80
2021/11/04 09:47:06;;;;;;;21.87;14.57;;;;;;;16.13;84.61;102026.50;1762113;79;21378;-82
2021/11/04 09:49:38;;;;;;;25.62;15.18;;;;;;;16.13;85.00;102022.84;1759263;79;21408;-78
2021/11/04 09:52:11;;;;;;;22.03;13.57;;;;;;;16.21;84.87;102042.00;1778527;79;21187;-80
2021/11/04 09:57:17;;;;;;;22.00;13.70;;;;;;;16.03;84.73;102040.39;1775160;79;21290;-79
2021/11/04 09:59:49;;;;;;;29.75;14.68;;;;;;;15.90;85.34;102034.38;1774489;78;21347;-79
2021/11/04 10:02:24;;;;;;;26.05;15.08;;;;;;;15.87;86.10;102022.28;1792297;79;21826;-81
2021/11/04 10:05:10;;;;;;;21.80;13.98;;;;;;;15.96;86.32;102031.92;1788819;78;21438;-78
2021/11/04 10:07:47;;;;;;;28.57;15.03;;;;;;;15.92;85.81;102032.14;1797567;77;21876;-83
2021/11/04 10:10:22;;;;;;;25.20;14.83;;;;;;;15.88;86.71;102029.57;1769631;78;21255;-78
2021/11/04 10:13:08;;;;;;;18.90;12.93;;;;;;;16.01;87.34;102033.92;1785296;77;21246;-84
2021/11/04 10:15:43;;;;;;;23.27;14.33;;;;;;;16.20;86.75;102035.53;1787994;78;21263;-78
2021/11/04 10:18:22;;;;;;;23.70;13.90;;;;;;;16.20;85.42;102038.88;1764177;80;21184;-80
2021/11/04 10:21:03;;;;;;;21.82;13.78;;;;;;;16.23;85.26;102032.77;1712410;81;21760;-80
2021/11/04 10:23:42;;;;;;;25.05;15.18;;;;;;;16.34;85.17;102021.95;1756814;79;21361;-80
2021/11/04 10:26:25;;;;;;;27.07;16.07;;;;;;;16.43;85.06;102020.36;1764187;79;21285;-81
2021/11/04 10:29:04;;;;;;;20.05;13.55;;;;;;;16.54;84.67;102012.34;1754507;80;21338;-81
2021/11/04 10:31:43;;;;;;;26.20;15.38;;;;;;;16.70;84.26;102014.99;1764951;80;21182;-80
2021/11/04 10:34:36;;;;;;;26.65;16.70;;;;;;;16.83;83.26;102014.52;1757689;78;21827;-80
2021/11/04 10:37:18;;;;;;;21.75;15.25;;;;;;;16.80;82.82;102012.27;1785963;77;21387;-82
2021/11/04 10:39:54;;;;;;;24.90;15.28;;;;;;;16.80;82.83;102017.03;1782324;77;21204;-77
2021/11/04 10:42:35;;;;;;;21.75;14.70;;;;;;;16.77;82.83;102007.77;1769746;77;21442;-80
2021/11/04 10:45:24;;;;;;;21.30;14.07;;;;;;;16.71;82.87;102018.66;1764428;77;21671;-80
2021/11/04 10:48:24;;;;;;;20.45;13.50;;;;;;;16.60;83.26;102005.11;1795739;78;22035;-82
2021/11/04 10:50:59;;;;;;;26.10;14.68;;;;;;;16.67;83.59;102012.73;1765244;77;21317;-82
2021/11/04 10:53:31;;;;;;;22.85;13.10;;;;;;;16.63;83.25;102007.94;1802072;77;21198;-80
2021/11/04 10:56:19;;;;;;;23.50;13.60;;;;;;;16.51;83.51;102009.50;1761600;77;21166;-81
2021/11/04 10:59:03;;;;;;;21.10;12.60;;;;;;;16.50;84.07;102005.56;1793086;77;21313;-84
2021/11/04 11:01:58;;;;;;;21.10;12.73;;;;;;;16.50;83.71;102007.82;1776711;77;21745;-81
2021/11/04 11:04:36;;;;;;;20.55;12.35;;;;;;;16.45;83.65;102009.17;1720941;80;21202;-82
2021/11/04 11:07:10;;;;;;;19.12;12.95;;;;;;;16.37;83.53;101992.81;1784687;79;21456;-80
2021/11/04 11:09:43;;;;;;;16.20;10.60;;;;;;;16.26;83.56;102002.23;1771506;79;21745;-82
2021/11/04 11:12:18;;;;;;;17.12;10.75;;;;;;;16.18;83.76;101999.06;1777110;79;21312;-83
2021/11/04 11:14:51;;;;;;;21.30;11.28;;;;;;;16.10;83.99;101997.58;1764681;80;21276;-81
2021/11/04 11:17:23;;;;;;;20.82;13.30;;;;;;;16.05;84.39;101989.70;1791899;76;21399;-77
2021/11/04 11:19:55;;;;;;;22.82;12.98;;;;;;;16.03;84.69;101988.55;1785037;77;21242;-77
2021/11/04 11:22:46;;;;;;;17.05;10.68;;;;;;;16.02;84.91;101986.00;1739645;80;21193;-76
2021/11/04 11:25:18;;;;;;;19.23;10.50;;;;;;;16.04;85.10;101973.42;1756483;80;21856;-83
2021/11/04 11:28:02;;;;;;;20.52;11.43;;;;;;;16.07;85.03;101965.62;1760025;79;21262;-83
2021/11/04 11:30:35;;;;;;;19.53;11.77;;;;;;;16.04;85.05;101964.19;1812666;77;21338;-80
2021/11/04 11:33:24;;;;;;;15.20;9.75;;;;;;;16.05;85.13;101963.07;1779573;79;21240;-76
2021/11/04 11:36:18;;;;;;;16.93;8.75;;;;;;;16.04;85.12;101966.98;1779672;77;22446;-79
2021/11/04 11:39:06;;;;;;;18.90;10.93;;;;;;;16.01;85.24;101975.91;1784360;78;21199;-76
2021/11/04 11:42:04;;;;;;;19.90;11.50;;;;;;;15.99;85.47;101968.34;1789024;77;21935;-80
2021/11/04 11:45:03;;;;;;;20.85;10.78;;;;;;;15.98;85.81;101964.39;1787967;77;21361;-77
2021/11/04 11:47:42;;;;;;;14.65;10.13;;;;;;;15.99;85.97;101966.94;1739823;80;21996;-75
2021/11/04 11:50:32;;;;;;;15.65;10.53;;;;;;;16.00;86.03;101967.22;1735841;80;21218;-76